sensor_id;sensor_type;location;lat;lon;timestamp;P1;durP1;ratioP1;P2;durP2;ratioP2
62523;SDS011;53689;56.878;60.672;2023-09-19T00:02:00;7.95;;;6.45;;
62523;SDS011;53689;56.878;60.672;2023-09-19T00:04:31;9.85;;;6.60;;
62523;SDS011;53689;56.878;60.672;2023-09-19T00:07:00;10.00;;;6.40;;
62523;SDS011;53689;56.878;60.672;2023-09-19T00:09:27;8.18;;;6.10;;
62523;SDS011;53689;56.878;60.672;2023-09-19T00:11:55;9.00;;;7.05;;
62523;SDS011;53689;56.878;60.672;2023-09-19T00:14:24;10.45;;;7.07;;
62523;SDS011;53689;56.878;60.672;2023-09-19T00:19:19;11.65;;;7.47;;
62523;SDS011;53689;56.878;60.672;2023-09-19T00:21:49;10.20;;;6.53;;
62523;SDS011;53689;56.878;60.672;2023-09-19T00:24:17;10.93;;;7.13;;
62523;SDS011;53689;56.878;60.672;2023-09-19T00:26:45;11.07;;;7.13;;
62523;SDS011;53689;56.878;60.672;2023-09-19T00:29:13;10.98;;;7.47;;
62523;SDS011;53689;56.878;60.672;2023-09-19T00:31:40;9.48;;;6.63;;
62523;SDS011;53689;56.878;60.672;2023-09-19T00:34:10;14.57;;;6.50;;
62523;SDS011;53689;56.878;60.672;2023-09-19T00:36:38;11.88;;;7.20;;
62523;SDS011;53689;56.878;60.672;2023-09-19T00:39:07;11.32;;;7.18;;
62523;SDS011;53689;56.878;60.672;2023-09-19T00:41:37;10.73;;;6.60;;
62523;SDS011;53689;56.878;60.672;2023-09-19T00:44:06;9.15;;;6.80;;
62523;SDS011;53689;56.878;60.672;2023-09-19T00:46:34;15.82;;;7.32;;
62523;SDS011;53689;56.878;60.672;2023-09-19T00:49:02;14.52;;;7.25;;
62523;SDS011;53689;56.878;60.672;2023-09-19T00:51:31;9.73;;;7.82;;
62523;SDS011;53689;56.878;60.672;2023-09-19T00:53:59;13.50;;;7.38;;
62523;SDS011;53689;56.878;60.672;2023-09-19T00:56:28;10.63;;;7.07;;
62523;SDS011;53689;56.878;60.672;2023-09-19T00:58:57;12.70;;;7.32;;
62523;SDS011;53689;56.878;60.672;2023-09-19T01:03:54;13.60;;;6.57;;
62523;SDS011;53689;56.878;60.672;2023-09-19T01:06:23;14.35;;;6.80;;
62523;SDS011;53689;56.878;60.672;2023-09-19T01:08:51;10.02;;;6.97;;
62523;SDS011;53689;56.878;60.672;2023-09-19T01:11:21;8.43;;;6.07;;
62523;SDS011;53689;56.878;60.672;2023-09-19T01:14:06;10.20;;;6.70;;
62523;SDS011;53689;56.878;60.672;2023-09-19T01:16:44;12.55;;;7.32;;
62523;SDS011;53689;56.878;60.672;2023-09-19T01:22:36;12.77;;;7.53;;
62523;SDS011;53689;56.878;60.672;2023-09-19T01:25:20;18.50;;;7.72;;
62523;SDS011;53689;56.878;60.672;2023-09-19T01:28:20;17.02;;;7.78;;
62523;SDS011;53689;56.878;60.672;2023-09-19T01:30:56;12.48;;;7.10;;
62523;SDS011;53689;56.878;60.672;2023-09-19T01:33:24;14.30;;;6.72;;
62523;SDS011;53689;56.878;60.672;2023-09-19T01:35:52;10.38;;;6.47;;
62523;SDS011;53689;56.878;60.672;2023-09-19T01:38:20;12.25;;;6.75;;
62523;SDS011;53689;56.878;60.672;2023-09-19T01:40:48;11.65;;;7.13;;
62523;SDS011;53689;56.878;60.672;2023-09-19T01:43:33;12.60;;;7.10;;
62523;SDS011;53689;56.878;60.672;2023-09-19T01:46:12;11.98;;;6.80;;
62523;SDS011;53689;56.878;60.672;2023-09-19T01:48:46;13.50;;;6.80;;
62523;SDS011;53689;56.878;60.672;2023-09-19T01:51:22;11.00;;;6.47;;
62523;SDS011;53689;56.878;60.672;2023-09-19T01:54:00;15.88;;;6.18;;
62523;SDS011;53689;56.878;60.672;2023-09-19T01:56:32;12.48;;;6.63;;
62523;SDS011;53689;56.878;60.672;2023-09-19T01:59:06;9.13;;;6.13;;
62523;SDS011;53689;56.878;60.672;2023-09-19T02:01:38;10.40;;;5.55;;
62523;SDS011;53689;56.878;60.672;2023-09-19T02:04:08;10.30;;;6.15;;
62523;SDS011;53689;56.878;60.672;2023-09-19T02:06:39;13.20;;;6.40;;
62523;SDS011;53689;56.878;60.672;2023-09-19T02:09:08;14.10;;;7.10;;
62523;SDS011;53689;56.878;60.672;2023-09-19T02:11:35;11.43;;;7.25;;
62523;SDS011;53689;56.878;60.672;2023-09-19T02:14:03;13.55;;;7.65;;
62523;SDS011;53689;56.878;60.672;2023-09-19T02:16:32;13.77;;;7.25;;
62523;SDS011;53689;56.878;60.672;2023-09-19T02:19:01;12.48;;;6.82;;
62523;SDS011;53689;56.878;60.672;2023-09-19T02:21:29;12.02;;;6.70;;
62523;SDS011;53689;56.878;60.672;2023-09-19T02:23:57;8.55;;;6.75;;
62523;SDS011;53689;56.878;60.672;2023-09-19T02:26:25;13.20;;;6.50;;
62523;SDS011;53689;56.878;60.672;2023-09-19T02:28:53;10.18;;;6.88;;
62523;SDS011;53689;56.878;60.672;2023-09-19T02:31:20;11.15;;;6.60;;
62523;SDS011;53689;56.878;60.672;2023-09-19T02:33:48;10.77;;;6.65;;
62523;SDS011;53689;56.878;60.672;2023-09-19T02:36:17;11.18;;;6.70;;
62523;SDS011;53689;56.878;60.672;2023-09-19T02:38:46;10.57;;;7.03;;
62523;SDS011;53689;56.878;60.672;2023-09-19T02:41:14;10.82;;;7.28;;
62523;SDS011;53689;56.878;60.672;2023-09-19T02:43:42;15.23;;;9.30;;
62523;SDS011;53689;56.878;60.672;2023-09-19T02:46:11;12.20;;;8.00;;
62523;SDS011;53689;56.878;60.672;2023-09-19T02:48:39;10.25;;;6.57;;
62523;SDS011;53689;56.878;60.672;2023-09-19T02:51:07;10.30;;;7.03;;
62523;SDS011;53689;56.878;60.672;2023-09-19T02:53:36;9.57;;;7.20;;
62523;SDS011;53689;56.878;60.672;2023-09-19T02:56:04;10.20;;;7.93;;
62523;SDS011;53689;56.878;60.672;2023-09-19T02:58:32;9.73;;;6.80;;
62523;SDS011;53689;56.878;60.672;2023-09-19T03:01:07;10.60;;;7.82;;
62523;SDS011;53689;56.878;60.672;2023-09-19T03:03:36;10.23;;;7.47;;
62523;SDS011;53689;56.878;60.672;2023-09-19T03:06:05;14.43;;;8.30;;
62523;SDS011;53689;56.878;60.672;2023-09-19T03:08:33;12.80;;;8.00;;
62523;SDS011;53689;56.878;60.672;2023-09-19T03:11:02;11.32;;;7.97;;
62523;SDS011;53689;56.878;60.672;2023-09-19T03:15:59;20.48;;;14.07;;
62523;SDS011;53689;56.878;60.672;2023-09-19T03:18:28;20.38;;;15.52;;
62523;SDS011;53689;56.878;60.672;2023-09-19T03:20:56;15.10;;;10.17;;
62523;SDS011;53689;56.878;60.672;2023-09-19T03:23:24;15.18;;;9.07;;
62523;SDS011;53689;56.878;60.672;2023-09-19T03:25:52;9.80;;;6.60;;
62523;SDS011;53689;56.878;60.672;2023-09-19T03:28:22;9.60;;;6.03;;
62523;SDS011;53689;56.878;60.672;2023-09-19T03:30:59;15.23;;;7.20;;
62523;SDS011;53689;56.878;60.672;2023-09-19T03:33:28;10.23;;;6.32;;
62523;SDS011;53689;56.878;60.672;2023-09-19T03:35:56;12.98;;;7.28;;
62523;SDS011;53689;56.878;60.672;2023-09-19T03:38:24;11.05;;;6.70;;
62523;SDS011;53689;56.878;60.672;2023-09-19T03:40:52;11.23;;;7.20;;
62523;SDS011;53689;56.878;60.672;2023-09-19T03:43:21;10.73;;;7.25;;
62523;SDS011;53689;56.878;60.672;2023-09-19T03:45:49;12.77;;;7.70;;
62523;SDS011;53689;56.878;60.672;2023-09-19T03:48:18;9.75;;;6.85;;
62523;SDS011;53689;56.878;60.672;2023-09-19T03:50:46;17.27;;;8.52;;
62523;SDS011;53689;56.878;60.672;2023-09-19T03:53:14;18.60;;;9.15;;
62523;SDS011;53689;56.878;60.672;2023-09-19T03:55:44;23.45;;;9.02;;
62523;SDS011;53689;56.878;60.672;2023-09-19T03:58:13;22.00;;;9.35;;
62523;SDS011;53689;56.878;60.672;2023-09-19T04:00:42;16.58;;;7.53;;
62523;SDS011;53689;56.878;60.672;2023-09-19T04:05:37;14.50;;;7.93;;
62523;SDS011;53689;56.878;60.672;2023-09-19T04:08:05;15.02;;;9.10;;
62523;SDS011;53689;56.878;60.672;2023-09-19T04:10:33;13.00;;;7.60;;
62523;SDS011;53689;56.878;60.672;2023-09-19T04:13:02;14.38;;;7.97;;
62523;SDS011;53689;56.878;60.672;2023-09-19T04:15:30;18.98;;;11.02;;
62523;SDS011;53689;56.878;60.672;2023-09-19T04:17:59;13.15;;;8.55;;
62523;SDS011;53689;56.878;60.672;2023-09-19T04:20:27;13.07;;;7.07;;
62523;SDS011;53689;56.878;60.672;2023-09-19T04:22:55;10.40;;;7.05;;
62523;SDS011;53689;56.878;60.672;2023-09-19T04:25:23;11.60;;;7.30;;
62523;SDS011;53689;56.878;60.672;2023-09-19T04:27:51;12.32;;;7.30;;
62523;SDS011;53689;56.878;60.672;2023-09-19T04:30:19;13.15;;;7.18;;
62523;SDS011;53689;56.878;60.672;2023-09-19T04:32:47;16.13;;;9.85;;
62523;SDS011;53689;56.878;60.672;2023-09-19T04:35:16;15.48;;;7.88;;
62523;SDS011;53689;56.878;60.672;2023-09-19T04:37:44;13.15;;;7.88;;
62523;SDS011;53689;56.878;60.672;2023-09-19T04:40:11;14.60;;;7.38;;
62523;SDS011;53689;56.878;60.672;2023-09-19T04:42:40;11.18;;;6.78;;
62523;SDS011;53689;56.878;60.672;2023-09-19T04:45:08;9.05;;;5.93;;
62523;SDS011;53689;56.878;60.672;2023-09-19T04:47:36;11.75;;;6.90;;
62523;SDS011;53689;56.878;60.672;2023-09-19T04:50:06;9.00;;;6.10;;
62523;SDS011;53689;56.878;60.672;2023-09-19T04:52:37;10.98;;;6.45;;
62523;SDS011;53689;56.878;60.672;2023-09-19T04:55:08;8.95;;;5.53;;
62523;SDS011;53689;56.878;60.672;2023-09-19T04:57:36;11.35;;;7.05;;
62523;SDS011;53689;56.878;60.672;2023-09-19T05:00:05;11.98;;;6.05;;
62523;SDS011;53689;56.878;60.672;2023-09-19T05:02:34;9.35;;;5.72;;
62523;SDS011;53689;56.878;60.672;2023-09-19T05:05:02;9.48;;;5.63;;
62523;SDS011;53689;56.878;60.672;2023-09-19T05:07:30;10.23;;;6.00;;
62523;SDS011;53689;56.878;60.672;2023-09-19T05:09:59;12.02;;;6.13;;
62523;SDS011;53689;56.878;60.672;2023-09-19T05:12:27;10.57;;;5.70;;
62523;SDS011;53689;56.878;60.672;2023-09-19T05:14:55;12.40;;;6.63;;
62523;SDS011;53689;56.878;60.672;2023-09-19T05:17:23;11.55;;;6.03;;
62523;SDS011;53689;56.878;60.672;2023-09-19T05:19:51;9.80;;;5.75;;
62523;SDS011;53689;56.878;60.672;2023-09-19T05:22:20;11.32;;;5.10;;
62523;SDS011;53689;56.878;60.672;2023-09-19T05:24:48;14.47;;;5.20;;
62523;SDS011;53689;56.878;60.672;2023-09-19T05:27:18;9.48;;;5.38;;
62523;SDS011;53689;56.878;60.672;2023-09-19T05:29:46;19.98;;;11.82;;
62523;SDS011;53689;56.878;60.672;2023-09-19T05:32:14;13.52;;;7.38;;
62523;SDS011;53689;56.878;60.672;2023-09-19T05:34:41;12.93;;;6.25;;
62523;SDS011;53689;56.878;60.672;2023-09-19T05:37:09;13.18;;;5.82;;
62523;SDS011;53689;56.878;60.672;2023-09-19T05:39:37;12.45;;;6.43;;
62523;SDS011;53689;56.878;60.672;2023-09-19T05:42:05;11.35;;;6.10;;
62523;SDS011;53689;56.878;60.672;2023-09-19T05:44:34;12.05;;;6.90;;
62523;SDS011;53689;56.878;60.672;2023-09-19T05:47:03;13.68;;;6.40;;
62523;SDS011;53689;56.878;60.672;2023-09-19T05:49:31;13.77;;;6.22;;
62523;SDS011;53689;56.878;60.672;2023-09-19T05:51:59;12.73;;;5.60;;
62523;SDS011;53689;56.878;60.672;2023-09-19T05:54:27;11.05;;;5.47;;
62523;SDS011;53689;56.878;60.672;2023-09-19T05:56:54;13.40;;;5.88;;
62523;SDS011;53689;56.878;60.672;2023-09-19T05:59:22;11.85;;;5.70;;
62523;SDS011;53689;56.878;60.672;2023-09-19T06:01:52;12.70;;;5.55;;
62523;SDS011;53689;56.878;60.672;2023-09-19T06:06:47;14.57;;;5.35;;
62523;SDS011;53689;56.878;60.672;2023-09-19T06:09:15;12.25;;;6.35;;
62523;SDS011;53689;56.878;60.672;2023-09-19T06:11:42;12.43;;;7.35;;
62523;SDS011;53689;56.878;60.672;2023-09-19T06:14:10;11.88;;;5.93;;
62523;SDS011;53689;56.878;60.672;2023-09-19T06:16:39;16.35;;;6.78;;
62523;SDS011;53689;56.878;60.672;2023-09-19T06:19:08;13.13;;;6.28;;
62523;SDS011;53689;56.878;60.672;2023-09-19T06:21:36;12.02;;;5.95;;
62523;SDS011;53689;56.878;60.672;2023-09-19T06:24:04;14.73;;;5.55;;
62523;SDS011;53689;56.878;60.672;2023-09-19T06:26:32;10.05;;;5.53;;
62523;SDS011;53689;56.878;60.672;2023-09-19T06:29:00;11.85;;;5.63;;
62523;SDS011;53689;56.878;60.672;2023-09-19T06:31:28;11.65;;;5.22;;
62523;SDS011;53689;56.878;60.672;2023-09-19T06:33:56;9.40;;;4.97;;
62523;SDS011;53689;56.878;60.672;2023-09-19T06:36:25;8.80;;;4.43;;
62523;SDS011;53689;56.878;60.672;2023-09-19T06:38:53;7.85;;;4.45;;
62523;SDS011;53689;56.878;60.672;2023-09-19T06:41:21;8.80;;;5.43;;
62523;SDS011;53689;56.878;60.672;2023-09-19T06:43:49;9.27;;;5.75;;
62523;SDS011;53689;56.878;60.672;2023-09-19T06:46:17;7.22;;;4.70;;
62523;SDS011;53689;56.878;60.672;2023-09-19T06:48:46;9.10;;;5.15;;
62523;SDS011;53689;56.878;60.672;2023-09-19T06:51:14;6.57;;;4.47;;
62523;SDS011;53689;56.878;60.672;2023-09-19T06:53:44;8.90;;;4.47;;
62523;SDS011;53689;56.878;60.672;2023-09-19T06:58:39;9.55;;;4.60;;
62523;SDS011;53689;56.878;60.672;2023-09-19T07:01:08;13.60;;;5.50;;
62523;SDS011;53689;56.878;60.672;2023-09-19T07:03:36;12.73;;;5.65;;
62523;SDS011;53689;56.878;60.672;2023-09-19T07:06:04;10.80;;;4.93;;
62523;SDS011;53689;56.878;60.672;2023-09-19T07:08:32;9.50;;;5.03;;
62523;SDS011;53689;56.878;60.672;2023-09-19T07:11:02;12.13;;;4.90;;
62523;SDS011;53689;56.878;60.672;2023-09-19T07:13:29;8.88;;;4.70;;
62523;SDS011;53689;56.878;60.672;2023-09-19T07:15:58;11.57;;;4.77;;
62523;SDS011;53689;56.878;60.672;2023-09-19T07:18:27;11.98;;;4.70;;
62523;SDS011;53689;56.878;60.672;2023-09-19T07:20:56;8.75;;;4.07;;
62523;SDS011;53689;56.878;60.672;2023-09-19T07:23:25;13.88;;;7.85;;
62523;SDS011;53689;56.878;60.672;2023-09-19T07:25:56;11.13;;;5.65;;
62523;SDS011;53689;56.878;60.672;2023-09-19T07:28:25;8.75;;;4.28;;
62523;SDS011;53689;56.878;60.672;2023-09-19T07:30:53;11.25;;;4.88;;
62523;SDS011;53689;56.878;60.672;2023-09-19T07:33:21;14.32;;;5.75;;
62523;SDS011;53689;56.878;60.672;2023-09-19T07:35:48;8.32;;;4.05;;
62523;SDS011;53689;56.878;60.672;2023-09-19T07:38:16;12.48;;;4.85;;
62523;SDS011;53689;56.878;60.672;2023-09-19T07:40:44;15.90;;;4.80;;
62523;SDS011;53689;56.878;60.672;2023-09-19T07:43:12;15.38;;;4.95;;
62523;SDS011;53689;56.878;60.672;2023-09-19T07:45:42;13.55;;;5.82;;
62523;SDS011;53689;56.878;60.672;2023-09-19T07:48:10;24.05;;;5.60;;
62523;SDS011;53689;56.878;60.672;2023-09-19T07:50:38;21.17;;;6.07;;
62523;SDS011;53689;56.878;60.672;2023-09-19T07:53:05;40.20;;;8.30;;
62523;SDS011;53689;56.878;60.672;2023-09-19T07:55:33;32.15;;;8.07;;
62523;SDS011;53689;56.878;60.672;2023-09-19T07:58:01;32.35;;;10.15;;
62523;SDS011;53689;56.878;60.672;2023-09-19T08:00:30;28.15;;;10.05;;
62523;SDS011;53689;56.878;60.672;2023-09-19T08:03:00;50.17;;;21.73;;
62523;SDS011;53689;56.878;60.672;2023-09-19T08:05:34;33.70;;;18.20;;
62523;SDS011;53689;56.878;60.672;2023-09-19T08:08:02;31.95;;;15.88;;
62523;SDS011;53689;56.878;60.672;2023-09-19T08:10:30;25.58;;;14.02;;
62523;SDS011;53689;56.878;60.672;2023-09-19T08:12:57;33.22;;;21.98;;
62523;SDS011;53689;56.878;60.672;2023-09-19T08:15:25;28.55;;;15.15;;
62523;SDS011;53689;56.878;60.672;2023-09-19T08:17:53;18.92;;;9.73;;
62523;SDS011;53689;56.878;60.672;2023-09-19T08:20:22;24.63;;;12.55;;
62523;SDS011;53689;56.878;60.672;2023-09-19T08:22:50;17.35;;;10.27;;
62523;SDS011;53689;56.878;60.672;2023-09-19T08:25:18;21.27;;;9.57;;
62523;SDS011;53689;56.878;60.672;2023-09-19T08:27:46;20.27;;;11.55;;
62523;SDS011;53689;56.878;60.672;2023-09-19T08:30:14;16.75;;;10.70;;
62523;SDS011;53689;56.878;60.672;2023-09-19T08:32:43;15.05;;;10.70;;
62523;SDS011;53689;56.878;60.672;2023-09-19T08:35:11;18.23;;;10.00;;
62523;SDS011;53689;56.878;60.672;2023-09-19T08:37:40;14.15;;;9.32;;
62523;SDS011;53689;56.878;60.672;2023-09-19T08:40:09;17.77;;;9.93;;
62523;SDS011;53689;56.878;60.672;2023-09-19T08:42:49;15.02;;;8.32;;
62523;SDS011;53689;56.878;60.672;2023-09-19T08:45:19;14.15;;;9.25;;
62523;SDS011;53689;56.878;60.672;2023-09-19T08:47:50;14.27;;;8.70;;
62523;SDS011;53689;56.878;60.672;2023-09-19T08:50:28;14.18;;;8.60;;
62523;SDS011;53689;56.878;60.672;2023-09-19T08:52:59;14.25;;;9.77;;
62523;SDS011;53689;56.878;60.672;2023-09-19T08:55:29;12.88;;;9.07;;
62523;SDS011;53689;56.878;60.672;2023-09-19T08:57:59;10.30;;;7.68;;
62523;SDS011;53689;56.878;60.672;2023-09-19T09:00:31;11.48;;;6.07;;
62523;SDS011;53689;56.878;60.672;2023-09-19T09:02:59;12.63;;;6.03;;
62523;SDS011;53689;56.878;60.672;2023-09-19T09:05:29;11.25;;;5.60;;
62523;SDS011;53689;56.878;60.672;2023-09-19T09:08:02;13.93;;;7.03;;
62523;SDS011;53689;56.878;60.672;2023-09-19T09:10:32;15.02;;;7.18;;
62523;SDS011;53689;56.878;60.672;2023-09-19T09:13:00;17.98;;;10.95;;
62523;SDS011;53689;56.878;60.672;2023-09-19T09:15:29;20.60;;;11.70;;
62523;SDS011;53689;56.878;60.672;2023-09-19T09:20:25;16.52;;;8.52;;
62523;SDS011;53689;56.878;60.672;2023-09-19T09:22:53;13.90;;;7.03;;
62523;SDS011;53689;56.878;60.672;2023-09-19T09:25:23;12.40;;;7.00;;
62523;SDS011;53689;56.878;60.672;2023-09-19T09:28:18;9.32;;;6.20;;
62523;SDS011;53689;56.878;60.672;2023-09-19T09:30:49;9.68;;;6.65;;
62523;SDS011;53689;56.878;60.672;2023-09-19T09:33:17;16.88;;;8.20;;
62523;SDS011;53689;56.878;60.672;2023-09-19T09:35:49;18.23;;;9.25;;
62523;SDS011;53689;56.878;60.672;2023-09-19T09:38:20;14.00;;;9.18;;
62523;SDS011;53689;56.878;60.672;2023-09-19T09:40:50;16.73;;;8.57;;
62523;SDS011;53689;56.878;60.672;2023-09-19T09:43:25;16.55;;;8.10;;
62523;SDS011;53689;56.878;60.672;2023-09-19T09:48:55;15.57;;;6.45;;
62523;SDS011;53689;56.878;60.672;2023-09-19T09:51:29;16.85;;;5.47;;
62523;SDS011;53689;56.878;60.672;2023-09-19T09:54:09;15.48;;;6.05;;
62523;SDS011;53689;56.878;60.672;2023-09-19T09:56:51;11.80;;;5.75;;
62523;SDS011;53689;56.878;60.672;2023-09-19T09:59:19;17.80;;;6.40;;
62523;SDS011;53689;56.878;60.672;2023-09-19T10:01:50;16.38;;;6.50;;
62523;SDS011;53689;56.878;60.672;2023-09-19T10:04:26;15.95;;;6.63;;
62523;SDS011;53689;56.878;60.672;2023-09-19T10:06:56;13.05;;;6.75;;
62523;SDS011;53689;56.878;60.672;2023-09-19T10:09:23;13.75;;;6.38;;
62523;SDS011;53689;56.878;60.672;2023-09-19T10:11:59;10.32;;;5.72;;
62523;SDS011;53689;56.878;60.672;2023-09-19T10:14:32;15.75;;;6.60;;
62523;SDS011;53689;56.878;60.672;2023-09-19T10:17:02;21.15;;;7.50;;
62523;SDS011;53689;56.878;60.672;2023-09-19T10:19:37;28.60;;;7.82;;
62523;SDS011;53689;56.878;60.672;2023-09-19T10:22:09;25.85;;;8.73;;
62523;SDS011;53689;56.878;60.672;2023-09-19T10:24:39;25.13;;;10.73;;
62523;SDS011;53689;56.878;60.672;2023-09-19T10:27:28;31.20;;;13.00;;
62523;SDS011;53689;56.878;60.672;2023-09-19T10:29:57;31.05;;;13.38;;
62523;SDS011;53689;56.878;60.672;2023-09-19T10:32:26;34.88;;;13.65;;
62523;SDS011;53689;56.878;60.672;2023-09-19T10:34:57;53.95;;;17.63;;
62523;SDS011;53689;56.878;60.672;2023-09-19T10:37:25;49.25;;;14.27;;
62523;SDS011;53689;56.878;60.672;2023-09-19T10:39:54;45.22;;;12.88;;
62523;SDS011;53689;56.878;60.672;2023-09-19T10:42:23;39.00;;;11.05;;
62523;SDS011;53689;56.878;60.672;2023-09-19T10:44:56;47.25;;;12.77;;
62523;SDS011;53689;56.878;60.672;2023-09-19T10:47:27;31.65;;;10.20;;
62523;SDS011;53689;56.878;60.672;2023-09-19T10:49:54;36.35;;;10.57;;
62523;SDS011;53689;56.878;60.672;2023-09-19T10:52:23;29.55;;;9.35;;
62523;SDS011;53689;56.878;60.672;2023-09-19T10:54:54;32.20;;;11.48;;
62523;SDS011;53689;56.878;60.672;2023-09-19T10:57:24;30.45;;;11.57;;
62523;SDS011;53689;56.878;60.672;2023-09-19T11:00:03;22.13;;;9.77;;
62523;SDS011;53689;56.878;60.672;2023-09-19T11:02:33;24.45;;;10.65;;
62523;SDS011;53689;56.878;60.672;2023-09-19T11:05:10;22.73;;;9.27;;
62523;SDS011;53689;56.878;60.672;2023-09-19T11:07:59;18.75;;;9.07;;
62523;SDS011;53689;56.878;60.672;2023-09-19T11:10:45;18.92;;;8.20;;
62523;SDS011;53689;56.878;60.672;2023-09-19T11:18:55;13.00;;;5.40;;
62523;SDS011;53689;56.878;60.672;2023-09-19T11:21:39;15.48;;;5.38;;
62523;SDS011;53689;56.878;60.672;2023-09-19T11:24:31;20.33;;;9.05;;
62523;SDS011;53689;56.878;60.672;2023-09-19T11:27:12;19.00;;;9.65;;
62523;SDS011;53689;56.878;60.672;2023-09-19T11:29:41;17.42;;;8.60;;
62523;SDS011;53689;56.878;60.672;2023-09-19T11:32:10;14.38;;;7.97;;
62523;SDS011;53689;56.878;60.672;2023-09-19T11:34:46;9.73;;;5.68;;
62523;SDS011;53689;56.878;60.672;2023-09-19T11:40:32;10.38;;;4.68;;
62523;SDS011;53689;56.878;60.672;2023-09-19T11:42:59;11.20;;;4.45;;
62523;SDS011;53689;56.878;60.672;2023-09-19T11:46:06;9.32;;;6.07;;
62523;SDS011;53689;56.878;60.672;2023-09-19T11:48:37;19.17;;;9.93;;
62523;SDS011;53689;56.878;60.672;2023-09-19T11:51:16;13.10;;;10.63;;
62523;SDS011;53689;56.878;60.672;2023-09-19T11:53:45;14.60;;;9.15;;
62523;SDS011;53689;56.878;60.672;2023-09-19T11:56:13;11.43;;;7.68;;
62523;SDS011;53689;56.878;60.672;2023-09-19T11:58:42;9.63;;;6.65;;
62523;SDS011;53689;56.878;60.672;2023-09-19T12:01:12;9.50;;;6.07;;
62523;SDS011;53689;56.878;60.672;2023-09-19T12:03:43;11.85;;;7.43;;
62523;SDS011;53689;56.878;60.672;2023-09-19T12:06:14;7.65;;;4.78;;
62523;SDS011;53689;56.878;60.672;2023-09-19T12:08:42;6.35;;;4.25;;
62523;SDS011;53689;56.878;60.672;2023-09-19T12:11:14;8.15;;;5.03;;
62523;SDS011;53689;56.878;60.672;2023-09-19T12:13:43;7.90;;;4.10;;
62523;SDS011;53689;56.878;60.672;2023-09-19T12:16:14;9.30;;;4.45;;
62523;SDS011;53689;56.878;60.672;2023-09-19T12:18:46;7.97;;;3.92;;
62523;SDS011;53689;56.878;60.672;2023-09-19T12:21:26;6.68;;;3.60;;
62523;SDS011;53689;56.878;60.672;2023-09-19T12:23:57;12.18;;;3.80;;
62523;SDS011;53689;56.878;60.672;2023-09-19T12:26:26;8.20;;;4.22;;
62523;SDS011;53689;56.878;60.672;2023-09-19T12:28:54;7.68;;;3.75;;
62523;SDS011;53689;56.878;60.672;2023-09-19T12:31:23;6.88;;;3.25;;
62523;SDS011;53689;56.878;60.672;2023-09-19T12:33:54;7.78;;;3.30;;
62523;SDS011;53689;56.878;60.672;2023-09-19T12:36:22;5.80;;;3.42;;
62523;SDS011;53689;56.878;60.672;2023-09-19T12:38:50;6.30;;;3.20;;
62523;SDS011;53689;56.878;60.672;2023-09-19T12:41:18;12.40;;;7.80;;
62523;SDS011;53689;56.878;60.672;2023-09-19T12:43:46;10.68;;;5.10;;
62523;SDS011;53689;56.878;60.672;2023-09-19T12:46:14;10.43;;;5.18;;
62523;SDS011;53689;56.878;60.672;2023-09-19T12:48:45;6.05;;;4.47;;
62523;SDS011;53689;56.878;60.672;2023-09-19T12:51:16;9.60;;;4.70;;
62523;SDS011;53689;56.878;60.672;2023-09-19T12:53:45;6.95;;;3.95;;
62523;SDS011;53689;56.878;60.672;2023-09-19T12:56:13;5.88;;;3.70;;
62523;SDS011;53689;56.878;60.672;2023-09-19T12:58:51;4.93;;;3.20;;
62523;SDS011;53689;56.878;60.672;2023-09-19T13:01:19;6.57;;;3.08;;
62523;SDS011;53689;56.878;60.672;2023-09-19T13:06:41;6.28;;;3.28;;
62523;SDS011;53689;56.878;60.672;2023-09-19T13:09:09;5.35;;;2.95;;
62523;SDS011;53689;56.878;60.672;2023-09-19T13:11:38;6.25;;;3.17;;
62523;SDS011;53689;56.878;60.672;2023-09-19T13:14:13;8.05;;;3.47;;
62523;SDS011;53689;56.878;60.672;2023-09-19T13:16:53;6.63;;;2.85;;
62523;SDS011;53689;56.878;60.672;2023-09-19T13:19:35;6.10;;;2.67;;
62523;SDS011;53689;56.878;60.672;2023-09-19T13:25:08;6.10;;;2.67;;
62523;SDS011;53689;56.878;60.672;2023-09-19T13:27:37;21.77;;;3.55;;
62523;SDS011;53689;56.878;60.672;2023-09-19T13:30:05;5.78;;;2.30;;
62523;SDS011;53689;56.878;60.672;2023-09-19T13:32:35;6.25;;;2.78;;
62523;SDS011;53689;56.878;60.672;2023-09-19T13:35:03;6.20;;;3.63;;
62523;SDS011;53689;56.878;60.672;2023-09-19T13:37:33;15.88;;;8.93;;
62523;SDS011;53689;56.878;60.672;2023-09-19T13:40:03;22.50;;;16.08;;
62523;SDS011;53689;56.878;60.672;2023-09-19T13:42:31;16.00;;;12.20;;
62523;SDS011;53689;56.878;60.672;2023-09-19T13:44:59;11.27;;;5.68;;
62523;SDS011;53689;56.878;60.672;2023-09-19T13:47:28;9.68;;;5.47;;
62523;SDS011;53689;56.878;60.672;2023-09-19T13:49:56;10.23;;;5.30;;
62523;SDS011;53689;56.878;60.672;2023-09-19T13:52:24;10.15;;;4.15;;
62523;SDS011;53689;56.878;60.672;2023-09-19T13:54:53;5.47;;;3.00;;
62523;SDS011;53689;56.878;60.672;2023-09-19T13:57:22;5.60;;;2.75;;
62523;SDS011;53689;56.878;60.672;2023-09-19T13:59:50;5.88;;;3.10;;
62523;SDS011;53689;56.878;60.672;2023-09-19T14:02:19;6.03;;;2.80;;
62523;SDS011;53689;56.878;60.672;2023-09-19T14:04:47;5.57;;;2.70;;
62523;SDS011;53689;56.878;60.672;2023-09-19T14:07:14;6.53;;;2.50;;
62523;SDS011;53689;56.878;60.672;2023-09-19T14:09:43;7.07;;;2.90;;
62523;SDS011;53689;56.878;60.672;2023-09-19T14:12:11;4.70;;;2.58;;
62523;SDS011;53689;56.878;60.672;2023-09-19T14:14:40;7.90;;;3.25;;
62523;SDS011;53689;56.878;60.672;2023-09-19T14:17:08;7.35;;;3.10;;
62523;SDS011;53689;56.878;60.672;2023-09-19T14:19:36;8.15;;;3.22;;
62523;SDS011;53689;56.878;60.672;2023-09-19T14:22:04;9.07;;;3.08;;
62523;SDS011;53689;56.878;60.672;2023-09-19T14:24:32;7.88;;;3.33;;
62523;SDS011;53689;56.878;60.672;2023-09-19T14:27:00;11.98;;;7.60;;
62523;SDS011;53689;56.878;60.672;2023-09-19T14:29:29;17.48;;;10.77;;
62523;SDS011;53689;56.878;60.672;2023-09-19T14:31:58;16.08;;;9.05;;
62523;SDS011;53689;56.878;60.672;2023-09-19T14:34:27;9.57;;;5.55;;
62523;SDS011;53689;56.878;60.672;2023-09-19T14:36:55;10.88;;;7.18;;
62523;SDS011;53689;56.878;60.672;2023-09-19T14:39:23;12.50;;;7.88;;
62523;SDS011;53689;56.878;60.672;2023-09-19T14:41:51;10.45;;;7.53;;
62523;SDS011;53689;56.878;60.672;2023-09-19T14:44:19;8.02;;;6.00;;
62523;SDS011;53689;56.878;60.672;2023-09-19T14:46:48;9.00;;;5.88;;
62523;SDS011;53689;56.878;60.672;2023-09-19T14:49:17;10.82;;;7.45;;
62523;SDS011;53689;56.878;60.672;2023-09-19T14:51:45;12.75;;;8.00;;
62523;SDS011;53689;56.878;60.672;2023-09-19T14:54:13;10.40;;;7.40;;
62523;SDS011;53689;56.878;60.672;2023-09-19T14:56:41;10.88;;;6.68;;
62523;SDS011;53689;56.878;60.672;2023-09-19T14:59:11;10.20;;;5.20;;
62523;SDS011;53689;56.878;60.672;2023-09-19T15:01:40;9.43;;;5.35;;
62523;SDS011;53689;56.878;60.672;2023-09-19T15:04:08;8.70;;;4.70;;
62523;SDS011;53689;56.878;60.672;2023-09-19T15:06:37;7.47;;;5.43;;
62523;SDS011;53689;56.878;60.672;2023-09-19T15:09:06;11.25;;;6.90;;
62523;SDS011;53689;56.878;60.672;2023-09-19T15:11:33;10.50;;;7.15;;
62523;SDS011;53689;56.878;60.672;2023-09-19T15:14:01;9.23;;;6.35;;
62523;SDS011;53689;56.878;60.672;2023-09-19T15:16:28;6.68;;;5.10;;
62523;SDS011;53689;56.878;60.672;2023-09-19T15:18:56;8.73;;;4.55;;